sensor_id;sensor_type;location;lat;lon;timestamp;P1;durP1;ratioP1;P2;durP2;ratioP2
73900;SDS011;62235;52.160;7.526;2023-05-23T00:01:32;9.07;;;4.85;;
73900;SDS011;62235;52.160;7.526;2023-05-23T00:04:01;6.97;;;3.67;;
73900;SDS011;62235;52.160;7.526;2023-05-23T00:06:27;7.82;;;5.10;;
73900;SDS011;62235;52.160;7.526;2023-05-23T00:08:52;7.43;;;4.18;;
73900;SDS011;62235;52.160;7.526;2023-05-23T00:11:17;7.03;;;3.67;;
73900;SDS011;62235;52.160;7.526;2023-05-23T00:13:44;7.60;;;4.90;;
73900;SDS011;62235;52.160;7.526;2023-05-23T00:16:09;8.13;;;4.75;;
73900;SDS011;62235;52.160;7.526;2023-05-23T00:18:35;4.53;;;2.73;;
73900;SDS011;62235;52.160;7.526;2023-05-23T00:21:01;7.10;;;4.40;;
73900;SDS011;62235;52.160;7.526;2023-05-23T00:23:27;7.90;;;4.88;;
73900;SDS011;62235;52.160;7.526;2023-05-23T00:25:53;7.00;;;4.15;;
73900;SDS011;62235;52.160;7.526;2023-05-23T00:28:19;5.30;;;3.38;;
73900;SDS011;62235;52.160;7.526;2023-05-23T00:30:45;6.28;;;3.40;;
73900;SDS011;62235;52.160;7.526;2023-05-23T00:33:12;11.65;;;5.45;;
73900;SDS011;62235;52.160;7.526;2023-05-23T00:35:38;5.45;;;3.10;;
73900;SDS011;62235;52.160;7.526;2023-05-23T00:38:05;9.18;;;5.20;;
73900;SDS011;62235;52.160;7.526;2023-05-23T00:40:31;5.40;;;3.20;;
73900;SDS011;62235;52.160;7.526;2023-05-23T00:42:57;8.70;;;5.60;;
73900;SDS011;62235;52.160;7.526;2023-05-23T00:45:22;7.27;;;2.77;;
73900;SDS011;62235;52.160;7.526;2023-05-23T00:47:48;4.87;;;2.87;;
73900;SDS011;62235;52.160;7.526;2023-05-23T00:50:14;8.30;;;4.53;;
73900;SDS011;62235;52.160;7.526;2023-05-23T00:52:40;6.60;;;3.90;;
73900;SDS011;62235;52.160;7.526;2023-05-23T00:55:06;5.80;;;3.05;;
73900;SDS011;62235;52.160;7.526;2023-05-23T00:57:32;5.68;;;2.97;;
73900;SDS011;62235;52.160;7.526;2023-05-23T00:59:59;4.82;;;2.88;;
73900;SDS011;62235;52.160;7.526;2023-05-23T01:02:24;6.88;;;2.83;;
73900;SDS011;62235;52.160;7.526;2023-05-23T01:04:51;4.57;;;3.10;;
73900;SDS011;62235;52.160;7.526;2023-05-23T01:07:20;7.07;;;3.15;;
73900;SDS011;62235;52.160;7.526;2023-05-23T01:09:45;6.88;;;3.13;;
73900;SDS011;62235;52.160;7.526;2023-05-23T01:15:01;7.05;;;4.00;;
73900;SDS011;62235;52.160;7.526;2023-05-23T01:17:37;9.73;;;4.43;;
73900;SDS011;62235;52.160;7.526;2023-05-23T01:20:24;6.85;;;3.90;;
73900;SDS011;62235;52.160;7.526;2023-05-23T01:25:29;7.57;;;3.55;;
73900;SDS011;62235;52.160;7.526;2023-05-23T01:28:26;5.88;;;2.72;;
73900;SDS011;62235;52.160;7.526;2023-05-23T01:30:54;11.90;;;6.28;;
73900;SDS011;62235;52.160;7.526;2023-05-23T01:33:22;10.48;;;6.10;;
73900;SDS011;62235;52.160;7.526;2023-05-23T01:35:49;11.43;;;6.13;;
73900;SDS011;62235;52.160;7.526;2023-05-23T01:38:14;11.50;;;5.70;;
73900;SDS011;62235;52.160;7.526;2023-05-23T01:40:40;13.60;;;6.60;;
73900;SDS011;62235;52.160;7.526;2023-05-23T01:43:05;15.70;;;8.60;;
73900;SDS011;62235;52.160;7.526;2023-05-23T01:45:31;15.38;;;7.93;;
73900;SDS011;62235;52.160;7.526;2023-05-23T01:47:57;11.40;;;5.63;;
73900;SDS011;62235;52.160;7.526;2023-05-23T01:50:23;12.05;;;6.75;;
73900;SDS011;62235;52.160;7.526;2023-05-23T01:52:48;10.38;;;5.40;;
73900;SDS011;62235;52.160;7.526;2023-05-23T01:55:15;16.35;;;9.55;;
73900;SDS011;62235;52.160;7.526;2023-05-23T01:57:42;14.80;;;7.22;;
73900;SDS011;62235;52.160;7.526;2023-05-23T02:00:08;13.93;;;6.75;;
73900;SDS011;62235;52.160;7.526;2023-05-23T02:02:36;10.30;;;5.38;;
73900;SDS011;62235;52.160;7.526;2023-05-23T02:05:01;13.80;;;6.47;;
73900;SDS011;62235;52.160;7.526;2023-05-23T02:07:26;13.57;;;6.15;;
73900;SDS011;62235;52.160;7.526;2023-05-23T02:09:52;18.90;;;9.05;;
73900;SDS011;62235;52.160;7.526;2023-05-23T02:12:17;9.40;;;4.30;;
73900;SDS011;62235;52.160;7.526;2023-05-23T02:14:42;18.98;;;9.77;;
73900;SDS011;62235;52.160;7.526;2023-05-23T02:17:08;18.00;;;8.45;;
73900;SDS011;62235;52.160;7.526;2023-05-23T02:19:34;19.95;;;8.57;;
73900;SDS011;62235;52.160;7.526;2023-05-23T02:22:00;13.77;;;7.65;;
73900;SDS011;62235;52.160;7.526;2023-05-23T02:24:25;18.70;;;8.77;;
73900;SDS011;62235;52.160;7.526;2023-05-23T02:26:50;14.83;;;6.97;;
73900;SDS011;62235;52.160;7.526;2023-05-23T02:29:16;12.90;;;5.82;;
73900;SDS011;62235;52.160;7.526;2023-05-23T02:31:42;9.27;;;4.72;;
73900;SDS011;62235;52.160;7.526;2023-05-23T02:34:07;13.70;;;7.30;;
73900;SDS011;62235;52.160;7.526;2023-05-23T02:36:32;16.67;;;8.20;;
73900;SDS011;62235;52.160;7.526;2023-05-23T02:38:58;11.80;;;5.57;;
73900;SDS011;62235;52.160;7.526;2023-05-23T02:41:23;10.77;;;4.97;;
73900;SDS011;62235;52.160;7.526;2023-05-23T02:43:48;12.02;;;6.18;;
73900;SDS011;62235;52.160;7.526;2023-05-23T02:46:14;7.87;;;4.13;;
73900;SDS011;62235;52.160;7.526;2023-05-23T02:48:39;10.65;;;4.68;;
73900;SDS011;62235;52.160;7.526;2023-05-23T02:51:04;10.63;;;4.78;;
73900;SDS011;62235;52.160;7.526;2023-05-23T02:53:30;5.97;;;3.73;;
73900;SDS011;62235;52.160;7.526;2023-05-23T02:55:55;10.70;;;5.45;;
73900;SDS011;62235;52.160;7.526;2023-05-23T02:58:21;13.67;;;6.60;;
73900;SDS011;62235;52.160;7.526;2023-05-23T03:00:46;10.53;;;5.30;;
73900;SDS011;62235;52.160;7.526;2023-05-23T03:03:11;11.53;;;5.43;;
73900;SDS011;62235;52.160;7.526;2023-05-23T03:05:37;7.57;;;4.10;;
73900;SDS011;62235;52.160;7.526;2023-05-23T03:08:02;6.10;;;2.87;;
73900;SDS011;62235;52.160;7.526;2023-05-23T03:10:27;10.07;;;5.63;;
73900;SDS011;62235;52.160;7.526;2023-05-23T03:12:52;8.33;;;3.97;;
73900;SDS011;62235;52.160;7.526;2023-05-23T03:15:18;11.68;;;6.30;;
73900;SDS011;62235;52.160;7.526;2023-05-23T03:17:43;9.10;;;4.70;;
73900;SDS011;62235;52.160;7.526;2023-05-23T03:20:09;8.93;;;4.60;;
73900;SDS011;62235;52.160;7.526;2023-05-23T03:22:35;5.70;;;3.22;;
73900;SDS011;62235;52.160;7.526;2023-05-23T03:25:00;3.10;;;1.33;;
73900;SDS011;62235;52.160;7.526;2023-05-23T03:27:26;9.63;;;5.55;;
73900;SDS011;62235;52.160;7.526;2023-05-23T03:29:51;7.23;;;4.03;;
73900;SDS011;62235;52.160;7.526;2023-05-23T03:32:16;5.97;;;3.80;;
73900;SDS011;62235;52.160;7.526;2023-05-23T03:34:42;15.65;;;3.85;;
73900;SDS011;62235;52.160;7.526;2023-05-23T03:37:07;8.67;;;3.50;;
73900;SDS011;62235;52.160;7.526;2023-05-23T03:39:32;6.17;;;3.93;;
73900;SDS011;62235;52.160;7.526;2023-05-23T03:41:58;8.20;;;4.13;;
73900;SDS011;62235;52.160;7.526;2023-05-23T03:44:23;6.53;;;3.80;;
73900;SDS011;62235;52.160;7.526;2023-05-23T03:46:48;11.05;;;5.45;;
73900;SDS011;62235;52.160;7.526;2023-05-23T03:49:14;8.63;;;4.97;;
73900;SDS011;62235;52.160;7.526;2023-05-23T03:51:39;11.43;;;4.57;;
73900;SDS011;62235;52.160;7.526;2023-05-23T03:54:04;7.97;;;4.40;;
73900;SDS011;62235;52.160;7.526;2023-05-23T03:56:30;11.27;;;5.45;;
73900;SDS011;62235;52.160;7.526;2023-05-23T03:58:55;13.00;;;7.15;;
73900;SDS011;62235;52.160;7.526;2023-05-23T04:01:21;11.38;;;5.85;;
73900;SDS011;62235;52.160;7.526;2023-05-23T04:03:46;10.57;;;5.32;;
73900;SDS011;62235;52.160;7.526;2023-05-23T04:06:13;11.82;;;6.63;;
73900;SDS011;62235;52.160;7.526;2023-05-23T04:08:38;13.37;;;7.53;;
73900;SDS011;62235;52.160;7.526;2023-05-23T04:11:05;9.50;;;4.72;;
73900;SDS011;62235;52.160;7.526;2023-05-23T04:13:31;11.88;;;5.15;;
73900;SDS011;62235;52.160;7.526;2023-05-23T04:15:58;10.98;;;6.10;;
73900;SDS011;62235;52.160;7.526;2023-05-23T04:18:25;14.73;;;6.15;;
73900;SDS011;62235;52.160;7.526;2023-05-23T04:20:50;10.82;;;5.65;;
73900;SDS011;62235;52.160;7.526;2023-05-23T04:23:16;10.23;;;5.43;;
73900;SDS011;62235;52.160;7.526;2023-05-23T04:25:41;11.97;;;5.60;;
73900;SDS011;62235;52.160;7.526;2023-05-23T04:28:06;13.07;;;6.90;;
73900;SDS011;62235;52.160;7.526;2023-05-23T04:30:34;11.85;;;5.88;;
73900;SDS011;62235;52.160;7.526;2023-05-23T04:33:00;11.68;;;6.10;;
73900;SDS011;62235;52.160;7.526;2023-05-23T04:35:25;10.65;;;5.20;;
73900;SDS011;62235;52.160;7.526;2023-05-23T04:37:56;11.30;;;5.88;;
73900;SDS011;62235;52.160;7.526;2023-05-23T04:40:22;13.95;;;6.03;;
73900;SDS011;62235;52.160;7.526;2023-05-23T04:42:48;6.32;;;3.45;;
73900;SDS011;62235;52.160;7.526;2023-05-23T04:45:14;9.48;;;5.15;;
73900;SDS011;62235;52.160;7.526;2023-05-23T04:47:39;11.27;;;5.47;;
73900;SDS011;62235;52.160;7.526;2023-05-23T04:50:05;11.80;;;6.40;;
73900;SDS011;62235;52.160;7.526;2023-05-23T04:52:31;12.82;;;6.35;;
73900;SDS011;62235;52.160;7.526;2023-05-23T04:54:57;10.50;;;4.63;;
73900;SDS011;62235;52.160;7.526;2023-05-23T04:57:24;14.63;;;5.78;;
73900;SDS011;62235;52.160;7.526;2023-05-23T04:59:49;13.13;;;6.53;;
73900;SDS011;62235;52.160;7.526;2023-05-23T05:02:14;8.73;;;4.60;;
73900;SDS011;62235;52.160;7.526;2023-05-23T05:04:40;13.10;;;5.10;;
73900;SDS011;62235;52.160;7.526;2023-05-23T05:07:05;13.53;;;7.43;;
73900;SDS011;62235;52.160;7.526;2023-05-23T05:09:30;13.88;;;5.25;;
73900;SDS011;62235;52.160;7.526;2023-05-23T05:11:56;12.48;;;6.07;;
73900;SDS011;62235;52.160;7.526;2023-05-23T05:14:22;9.68;;;5.45;;
73900;SDS011;62235;52.160;7.526;2023-05-23T05:16:47;4.90;;;2.23;;
73900;SDS011;62235;52.160;7.526;2023-05-23T05:19:14;9.27;;;4.70;;
73900;SDS011;62235;52.160;7.526;2023-05-23T05:21:40;9.50;;;4.60;;
73900;SDS011;62235;52.160;7.526;2023-05-23T05:24:05;12.57;;;6.18;;
73900;SDS011;62235;52.160;7.526;2023-05-23T05:26:33;7.13;;;3.38;;
73900;SDS011;62235;52.160;7.526;2023-05-23T05:29:00;4.32;;;1.92;;
73900;SDS011;62235;52.160;7.526;2023-05-23T05:31:25;5.28;;;2.42;;
73900;SDS011;62235;52.160;7.526;2023-05-23T05:33:51;3.90;;;2.03;;
73900;SDS011;62235;52.160;7.526;2023-05-23T05:36:18;1.73;;;1.27;;
73900;SDS011;62235;52.160;7.526;2023-05-23T05:38:43;5.20;;;1.80;;
73900;SDS011;62235;52.160;7.526;2023-05-23T05:41:09;3.65;;;1.48;;
73900;SDS011;62235;52.160;7.526;2023-05-23T05:43:34;4.00;;;2.13;;
73900;SDS011;62235;52.160;7.526;2023-05-23T05:45:59;3.63;;;2.20;;
73900;SDS011;62235;52.160;7.526;2023-05-23T05:48:25;2.77;;;1.67;;
73900;SDS011;62235;52.160;7.526;2023-05-23T05:50:50;2.90;;;1.60;;
73900;SDS011;62235;52.160;7.526;2023-05-23T05:53:15;1.87;;;1.13;;
73900;SDS011;62235;52.160;7.526;2023-05-23T05:55:41;2.50;;;1.60;;
73900;SDS011;62235;52.160;7.526;2023-05-23T05:58:06;3.88;;;1.70;;
73900;SDS011;62235;52.160;7.526;2023-05-23T06:00:32;4.85;;;1.63;;
73900;SDS011;62235;52.160;7.526;2023-05-23T06:02:58;4.43;;;1.60;;
73900;SDS011;62235;52.160;7.526;2023-05-23T06:05:24;4.25;;;1.50;;
73900;SDS011;62235;52.160;7.526;2023-05-23T06:07:50;4.00;;;1.95;;
73900;SDS011;62235;52.160;7.526;2023-05-23T06:10:16;2.55;;;1.35;;
73900;SDS011;62235;52.160;7.526;2023-05-23T06:12:41;3.75;;;1.83;;
73900;SDS011;62235;52.160;7.526;2023-05-23T06:15:07;2.88;;;1.52;;
73900;SDS011;62235;52.160;7.526;2023-05-23T06:17:33;4.80;;;2.28;;
73900;SDS011;62235;52.160;7.526;2023-05-23T06:19:59;3.05;;;1.60;;
73900;SDS011;62235;52.160;7.526;2023-05-23T06:22:24;3.95;;;2.10;;
73900;SDS011;62235;52.160;7.526;2023-05-23T06:24:50;3.25;;;1.77;;
73900;SDS011;62235;52.160;7.526;2023-05-23T06:27:15;4.50;;;1.77;;
73900;SDS011;62235;52.160;7.526;2023-05-23T06:29:40;4.50;;;2.30;;
73900;SDS011;62235;52.160;7.526;2023-05-23T06:32:06;2.15;;;1.05;;
73900;SDS011;62235;52.160;7.526;2023-05-23T06:34:31;4.43;;;1.73;;
73900;SDS011;62235;52.160;7.526;2023-05-23T06:36:56;2.20;;;1.17;;
73900;SDS011;62235;52.160;7.526;2023-05-23T06:39:22;4.43;;;1.90;;
73900;SDS011;62235;52.160;7.526;2023-05-23T06:41:47;2.58;;;1.63;;
73900;SDS011;62235;52.160;7.526;2023-05-23T06:44:13;3.33;;;2.10;;
73900;SDS011;62235;52.160;7.526;2023-05-23T06:46:38;4.18;;;1.25;;
73900;SDS011;62235;52.160;7.526;2023-05-23T06:49:04;1.40;;;1.07;;
73900;SDS011;62235;52.160;7.526;2023-05-23T06:51:29;6.03;;;1.58;;
73900;SDS011;62235;52.160;7.526;2023-05-23T06:53:55;5.72;;;1.60;;
73900;SDS011;62235;52.160;7.526;2023-05-23T06:56:21;2.72;;;1.58;;
73900;SDS011;62235;52.160;7.526;2023-05-23T06:58:47;4.97;;;1.77;;
73900;SDS011;62235;52.160;7.526;2023-05-23T07:01:12;3.83;;;1.67;;
73900;SDS011;62235;52.160;7.526;2023-05-23T07:03:38;4.40;;;1.75;;
73900;SDS011;62235;52.160;7.526;2023-05-23T07:06:05;4.82;;;2.30;;
73900;SDS011;62235;52.160;7.526;2023-05-23T07:08:31;5.50;;;1.92;;
73900;SDS011;62235;52.160;7.526;2023-05-23T07:10:56;2.73;;;1.47;;
73900;SDS011;62235;52.160;7.526;2023-05-23T07:13:22;5.67;;;2.93;;
73900;SDS011;62235;52.160;7.526;2023-05-23T07:15:47;7.50;;;2.70;;
73900;SDS011;62235;52.160;7.526;2023-05-23T07:18:12;6.43;;;2.50;;
73900;SDS011;62235;52.160;7.526;2023-05-23T07:20:38;5.80;;;1.70;;
73900;SDS011;62235;52.160;7.526;2023-05-23T07:23:03;5.77;;;2.67;;
73900;SDS011;62235;52.160;7.526;2023-05-23T07:25:28;10.27;;;3.50;;
73900;SDS011;62235;52.160;7.526;2023-05-23T07:27:54;3.17;;;1.85;;
73900;SDS011;62235;52.160;7.526;2023-05-23T07:30:20;4.53;;;1.80;;
73900;SDS011;62235;52.160;7.526;2023-05-23T07:32:46;4.80;;;2.13;;
73900;SDS011;62235;52.160;7.526;2023-05-23T07:35:12;4.00;;;1.90;;
73900;SDS011;62235;52.160;7.526;2023-05-23T07:37:38;6.50;;;2.50;;
73900;SDS011;62235;52.160;7.526;2023-05-23T07:40:03;6.13;;;2.27;;
73900;SDS011;62235;52.160;7.526;2023-05-23T07:42:29;7.38;;;2.13;;
73900;SDS011;62235;52.160;7.526;2023-05-23T07:44:54;5.72;;;1.95;;
73900;SDS011;62235;52.160;7.526;2023-05-23T07:47:20;3.35;;;1.83;;
73900;SDS011;62235;52.160;7.526;2023-05-23T07:49:45;5.88;;;2.90;;
73900;SDS011;62235;52.160;7.526;2023-05-23T07:52:11;6.50;;;3.47;;
73900;SDS011;62235;52.160;7.526;2023-05-23T07:54:37;6.45;;;2.60;;
73900;SDS011;62235;52.160;7.526;2023-05-23T07:57:02;6.55;;;2.63;;
73900;SDS011;62235;52.160;7.526;2023-05-23T07:59:28;8.25;;;3.20;;
73900;SDS011;62235;52.160;7.526;2023-05-23T08:01:54;6.72;;;2.38;;
73900;SDS011;62235;52.160;7.526;2023-05-23T08:04:19;2.92;;;1.60;;
73900;SDS011;62235;52.160;7.526;2023-05-23T08:06:45;5.47;;;2.03;;
73900;SDS011;62235;52.160;7.526;2023-05-23T08:09:11;3.97;;;1.35;;
73900;SDS011;62235;52.160;7.526;2023-05-23T08:11:37;8.52;;;2.67;;
73900;SDS011;62235;52.160;7.526;2023-05-23T08:14:02;3.73;;;1.70;;
73900;SDS011;62235;52.160;7.526;2023-05-23T08:16:27;4.37;;;1.67;;
73900;SDS011;62235;52.160;7.526;2023-05-23T08:18:52;3.45;;;1.92;;
73900;SDS011;62235;52.160;7.526;2023-05-23T08:21:18;5.80;;;2.70;;
73900;SDS011;62235;52.160;7.526;2023-05-23T08:23:43;4.57;;;1.97;;
73900;SDS011;62235;52.160;7.526;2023-05-23T08:26:08;4.38;;;1.60;;
73900;SDS011;62235;52.160;7.526;2023-05-23T08:28:34;11.27;;;3.58;;
73900;SDS011;62235;52.160;7.526;2023-05-23T08:30:59;9.18;;;4.47;;
73900;SDS011;62235;52.160;7.526;2023-05-23T08:33:25;8.53;;;3.20;;
73900;SDS011;62235;52.160;7.526;2023-05-23T08:35:50;4.50;;;1.90;;
73900;SDS011;62235;52.160;7.526;2023-05-23T08:38:16;10.88;;;3.55;;
73900;SDS011;62235;52.160;7.526;2023-05-23T08:40:42;8.77;;;3.70;;
73900;SDS011;62235;52.160;7.526;2023-05-23T08:43:14;7.80;;;1.73;;
73900;SDS011;62235;52.160;7.526;2023-05-23T08:45:39;8.70;;;1.98;;
73900;SDS011;62235;52.160;7.526;2023-05-23T08:48:07;8.88;;;3.63;;
73900;SDS011;62235;52.160;7.526;2023-05-23T08:50:37;10.00;;;3.90;;
73900;SDS011;62235;52.160;7.526;2023-05-23T08:53:04;5.90;;;2.63;;
73900;SDS011;62235;52.160;7.526;2023-05-23T08:55:32;11.25;;;4.10;;
73900;SDS011;62235;52.160;7.526;2023-05-23T08:57:57;9.88;;;4.20;;
73900;SDS011;62235;52.160;7.526;2023-05-23T09:00:24;9.85;;;3.40;;
73900;SDS011;62235;52.160;7.526;2023-05-23T09:02:50;5.70;;;2.05;;
73900;SDS011;62235;52.160;7.526;2023-05-23T09:05:16;8.77;;;3.03;;
73900;SDS011;62235;52.160;7.526;2023-05-23T09:07:42;5.93;;;2.22;;
73900;SDS011;62235;52.160;7.526;2023-05-23T09:10:11;6.18;;;2.05;;
73900;SDS011;62235;52.160;7.526;2023-05-23T09:12:38;7.03;;;2.95;;
73900;SDS011;62235;52.160;7.526;2023-05-23T09:15:04;6.32;;;2.47;;
73900;SDS011;62235;52.160;7.526;2023-05-23T09:17:30;9.15;;;2.40;;
73900;SDS011;62235;52.160;7.526;2023-05-23T09:19:57;4.85;;;2.10;;
73900;SDS011;62235;52.160;7.526;2023-05-23T09:22:23;5.28;;;1.52;;
73900;SDS011;62235;52.160;7.526;2023-05-23T09:27:18;10.20;;;2.78;;
73900;SDS011;62235;52.160;7.526;2023-05-23T09:29:43;7.53;;;2.70;;
73900;SDS011;62235;52.160;7.526;2023-05-23T09:32:11;6.18;;;1.80;;
73900;SDS011;62235;52.160;7.526;2023-05-23T09:35:21;11.75;;;2.40;;
73900;SDS011;62235;52.160;7.526;2023-05-23T09:38:01;7.97;;;2.22;;
73900;SDS011;62235;52.160;7.526;2023-05-23T09:40:22;5.78;;;2.00;;
73900;SDS011;62235;52.160;7.526;2023-05-23T09:42:53;5.13;;;2.35;;
73900;SDS011;62235;52.160;7.526;2023-05-23T09:45:18;7.82;;;1.65;;
73900;SDS011;62235;52.160;7.526;2023-05-23T09:47:50;7.22;;;1.58;;
73900;SDS011;62235;52.160;7.526;2023-05-23T09:50:16;5.97;;;1.67;;
73900;SDS011;62235;52.160;7.526;2023-05-23T09:52:42;8.70;;;2.70;;
73900;SDS011;62235;52.160;7.526;2023-05-23T09:55:07;5.50;;;2.20;;
73900;SDS011;62235;52.160;7.526;2023-05-23T09:57:33;7.20;;;2.00;;
73900;SDS011;62235;52.160;7.526;2023-05-23T10:00:01;8.27;;;2.58;;
73900;SDS011;62235;52.160;7.526;2023-05-23T10:05:10;9.57;;;2.00;;
73900;SDS011;62235;52.160;7.526;2023-05-23T10:07:43;9.27;;;2.53;;
73900;SDS011;62235;52.160;7.526;2023-05-23T10:10:09;9.38;;;2.75;;
73900;SDS011;62235;52.160;7.526;2023-05-23T10:15:08;2.65;;;1.45;;
73900;SDS011;62235;52.160;7.526;2023-05-23T10:20:35;13.80;;;3.17;;
73900;SDS011;62235;52.160;7.526;2023-05-23T10:23:03;4.45;;;1.88;;
73900;SDS011;62235;52.160;7.526;2023-05-23T10:25:29;9.75;;;1.98;;
73900;SDS011;62235;52.160;7.526;2023-05-23T10:27:55;8.55;;;2.60;;
73900;SDS011;62235;52.160;7.526;2023-05-23T10:30:23;5.13;;;1.20;;
73900;SDS011;62235;52.160;7.526;2023-05-23T10:32:49;6.32;;;1.77;;
73900;SDS011;62235;52.160;7.526;2023-05-23T10:35:29;5.18;;;1.27;;
73900;SDS011;62235;52.160;7.526;2023-05-23T10:46:19;4.72;;;1.48;;
73900;SDS011;62235;52.160;7.526;2023-05-23T10:48:46;9.23;;;0.98;;
73900;SDS011;62235;52.160;7.526;2023-05-23T10:51:12;4.57;;;1.47;;
73900;SDS011;62235;52.160;7.526;2023-05-23T10:53:44;5.10;;;1.73;;
73900;SDS011;62235;52.160;7.526;2023-05-23T10:56:18;8.32;;;2.15;;
73900;SDS011;62235;52.160;7.526;2023-05-23T10:58:51;4.75;;;1.25;;
73900;SDS011;62235;52.160;7.526;2023-05-23T11:01:20;6.63;;;1.80;;
73900;SDS011;62235;52.160;7.526;2023-05-23T11:09:17;6.32;;;1.88;;
73900;SDS011;62235;52.160;7.526;2023-05-23T11:14:16;2.85;;;1.23;;
73900;SDS011;62235;52.160;7.526;2023-05-23T11:16:42;5.90;;;1.95;;
73900;SDS011;62235;52.160;7.526;2023-05-23T11:21:56;6.90;;;2.03;;
73900;SDS011;62235;52.160;7.526;2023-05-23T11:24:23;8.15;;;2.10;;
73900;SDS011;62235;52.160;7.526;2023-05-23T11:27:12;7.55;;;2.00;;
73900;SDS011;62235;52.160;7.526;2023-05-23T11:29:38;8.20;;;1.83;;
73900;SDS011;62235;52.160;7.526;2023-05-23T11:32:12;3.22;;;1.40;;
73900;SDS011;62235;52.160;7.526;2023-05-23T11:34:38;4.35;;;1.00;;
73900;SDS011;62235;52.160;7.526;2023-05-23T11:37:04;10.77;;;2.40;;
73900;SDS011;62235;52.160;7.526;2023-05-23T11:39:29;8.43;;;2.05;;
73900;SDS011;62235;52.160;7.526;2023-05-23T11:41:58;3.40;;;1.23;;
73900;SDS011;62235;52.160;7.526;2023-05-23T11:44:24;7.68;;;1.92;;
73900;SDS011;62235;52.160;7.526;2023-05-23T11:49:26;4.15;;;1.80;;
73900;SDS011;62235;52.160;7.526;2023-05-23T11:51:55;7.43;;;2.25;;
73900;SDS011;62235;52.160;7.526;2023-05-23T11:54:22;3.58;;;1.75;;
73900;SDS011;62235;52.160;7.526;2023-05-23T11:56:49;5.35;;;1.40;;
73900;SDS011;62235;52.160;7.526;2023-05-23T11:59:14;6.47;;;1.50;;
73900;SDS011;62235;52.160;7.526;2023-05-23T12:01:40;6.15;;;1.42;;
73900;SDS011;62235;52.160;7.526;2023-05-23T12:04:09;8.30;;;1.52;;
73900;SDS011;62235;52.160;7.526;2023-05-23T12:06:37;2.97;;;0.80;;
73900;SDS011;62235;52.160;7.526;2023-05-23T12:09:03;3.58;;;1.27;;
73900;SDS011;62235;52.160;7.526;2023-05-23T12:11:32;7.10;;;1.98;;
73900;SDS011;62235;52.160;7.526;2023-05-23T12:13:58;10.50;;;1.98;;
73900;SDS011;62235;52.160;7.526;2023-05-23T12:16:27;10.65;;;1.83;;
73900;SDS011;62235;52.160;7.526;2023-05-23T12:18:53;5.25;;;1.60;;
73900;SDS011;62235;52.160;7.526;2023-05-23T12:21:18;4.97;;;1.90;;
73900;SDS011;62235;52.160;7.526;2023-05-23T12:23:44;5.32;;;1.50;;
73900;SDS011;62235;52.160;7.526;2023-05-23T12:26:09;7.43;;;1.80;;
73900;SDS011;62235;52.160;7.526;2023-05-23T12:28:42;6.65;;;1.27;;
73900;SDS011;62235;52.160;7.526;2023-05-23T12:31:09;5.45;;;1.25;;
73900;SDS011;62235;52.160;7.526;2023-05-23T12:33:41;6.55;;;1.52;;
73900;SDS011;62235;52.160;7.526;2023-05-23T12:36:31;7.80;;;2.15;;
73900;SDS011;62235;52.160;7.526;2023-05-23T12:39:04;5.32;;;0.98;;
73900;SDS011;62235;52.160;7.526;2023-05-23T12:41:30;4.03;;;1.00;;
73900;SDS011;62235;52.160;7.526;2023-05-23T12:43:56;7.00;;;1.48;;
73900;SDS011;62235;52.160;7.526;2023-05-23T12:46:22;4.13;;;1.77;;
73900;SDS011;62235;52.160;7.526;2023-05-23T12:48:48;4.05;;;1.08;;
73900;SDS011;62235;52.160;7.526;2023-05-23T12:51:14;4.03;;;1.33;;
73900;SDS011;62235;52.160;7.526;2023-05-23T12:53:39;5.68;;;1.85;;
73900;SDS011;62235;52.160;7.526;2023-05-23T12:56:05;3.63;;;1.60;;
73900;SDS011;62235;52.160;7.526;2023-05-23T12:58:30;8.20;;;1.83;;
73900;SDS011;62235;52.160;7.526;2023-05-23T13:00:56;6.65;;;1.20;;
73900;SDS011;62235;52.160;7.526;2023-05-23T13:03:22;4.18;;;1.15;;
73900;SDS011;62235;52.160;7.526;2023-05-23T13:05:47;9.55;;;2.70;;
73900;SDS011;62235;52.160;7.526;2023-05-23T13:08:12;10.80;;;2.00;;
73900;SDS011;62235;52.160;7.526;2023-05-23T13:10:39;2.65;;;1.08;;
73900;SDS011;62235;52.160;7.526;2023-05-23T13:13:04;6.03;;;1.88;;
73900;SDS011;62235;52.160;7.526;2023-05-23T13:15:30;1.63;;;0.75;;
73900;SDS011;62235;52.160;7.526;2023-05-23T13:17:55;3.53;;;1.00;;
73900;SDS011;62235;52.160;7.526;2023-05-23T13:20:20;2.70;;;1.00;;
73900;SDS011;62235;52.160;7.526;2023-05-23T13:22:46;3.20;;;1.33;;
73900;SDS011;62235;52.160;7.526;2023-05-23T13:25:11;5.20;;;1.98;;
73900;SDS011;62235;52.160;7.526;2023-05-23T13:27:37;5.18;;;1.65;;
73900;SDS011;62235;52.160;7.526;2023-05-23T13:30:02;6.10;;;1.27;;
73900;SDS011;62235;52.160;7.526;2023-05-23T13:32:28;3.78;;;1.15;;
73900;SDS011;62235;52.160;7.526;2023-05-23T13:34:53;6.20;;;1.75;;
73900;SDS011;62235;52.160;7.526;2023-05-23T13:37:18;6.00;;;1.55;;
73900;SDS011;62235;52.160;7.526;2023-05-23T13:39:44;4.05;;;1.48;;
73900;SDS011;62235;52.160;7.526;2023-05-23T13:42:09;3.60;;;1.30;;
73900;SDS011;62235;52.160;7.526;2023-05-23T13:44:35;3.30;;;1.13;;
73900;SDS011;62235;52.160;7.526;2023-05-23T13:47:10;5.30;;;1.05;;
73900;SDS011;62235;52.160;7.526;2023-05-23T13:49:36;7.32;;;1.60;;
73900;SDS011;62235;52.160;7.526;2023-05-23T13:52:02;4.63;;;1.03;;
73900;SDS011;62235;52.160;7.526;2023-05-23T13:54:27;6.00;;;1.33;;
73900;SDS011;62235;52.160;7.526;2023-05-23T13:56:52;2.07;;;0.83;;
73900;SDS011;62235;52.160;7.526;2023-05-23T13:59:18;6.80;;;1.15;;
73900;SDS011;62235;52.160;7.526;2023-05-23T14:01:45;7.28;;;1.85;;
73900;SDS011;62235;52.160;7.526;2023-05-23T14:04:13;3.53;;;1.20;;
73900;SDS011;62235;52.160;7.526;2023-05-23T14:06:39;10.27;;;1.37;;
73900;SDS011;62235;52.160;7.526;2023-05-23T14:09:10;5.55;;;1.50;;
73900;SDS011;62235;52.160;7.526;2023-05-23T14:11:36;5.55;;;1.80;;
73900;SDS011;62235;52.160;7.526;2023-05-23T14:14:04;4.47;;;1.40;;
73900;SDS011;62235;52.160;7.526;2023-05-23T14:16:31;6.60;;;1.83;;
73900;SDS011;62235;52.160;7.526;2023-05-23T14:18:57;5.47;;;1.40;;
73900;SDS011;62235;52.160;7.526;2023-05-23T14:21:22;5.97;;;1.57;;
73900;SDS011;62235;52.160;7.526;2023-05-23T14:23:47;6.13;;;1.30;;
73900;SDS011;62235;52.160;7.526;2023-05-23T14:26:13;2.10;;;0.93;;
73900;SDS011;62235;52.160;7.526;2023-05-23T14:28:38;5.30;;;1.30;;
73900;SDS011;62235;52.160;7.526;2023-05-23T14:31:04;5.30;;;1.20;;
73900;SDS011;62235;52.160;7.526;2023-05-23T14:33:29;3.15;;;1.08;;
73900;SDS011;62235;52.160;7.526;2023-05-23T14:35:54;5.45;;;1.35;;
73900;SDS011;62235;52.160;7.526;2023-05-23T14:38:20;8.60;;;1.57;;
73900;SDS011;62235;52.160;7.526;2023-05-23T14:40:45;5.83;;;0.87;;
73900;SDS011;62235;52.160;7.526;2023-05-23T14:43:11;4.32;;;0.82;;
73900;SDS011;62235;52.160;7.526;2023-05-23T14:45:36;4.03;;;1.25;;
73900;SDS011;62235;52.160;7.526;2023-05-23T14:48:03;3.00;;;0.97;;
73900;SDS011;62235;52.160;7.526;2023-05-23T14:50:28;3.05;;;0.93;;
73900;SDS011;62235;52.160;7.526;2023-05-23T14:52:54;4.55;;;1.23;;
73900;SDS011;62235;52.160;7.526;2023-05-23T14:55:19;2.88;;;1.55;;
73900;SDS011;62235;52.160;7.526;2023-05-23T14:57:45;5.55;;;1.25;;
73900;SDS011;62235;52.160;7.526;2023-05-23T15:00:10;3.77;;;1.07;;
73900;SDS011;62235;52.160;7.526;2023-05-23T15:02:37;2.50;;;0.88;;
73900;SDS011;62235;52.160;7.526;2023-05-23T15:05:03;3.05;;;1.08;;
73900;SDS011;62235;52.160;7.526;2023-05-23T15:07:29;1.10;;;0.68;;
73900;SDS011;62235;52.160;7.526;2023-05-23T15:09:54;5.32;;;1.70;;
73900;SDS011;62235;52.160;7.526;2023-05-23T15:12:20;7.57;;;1.40;;
73900;SDS011;62235;52.160;7.526;2023-05-23T15:14:45;3.53;;;0.88;;
73900;SDS011;62235;52.160;7.526;2023-05-23T15:17:11;7.55;;;1.58;;
73900;SDS011;62235;52.160;7.526;2023-05-23T15:19:37;6.32;;;1.70;;